Time;durP1;ratioP1;P1;durP2;ratioP2;P2;SDS_P1;SDS_P2;PMS_P1;PMS_P2;Temp;Humidity;BMP_temperature;BMP_pressure;BME280_temperature;BME280_humidity;BME280_pressure;Samples;Min_cycle;Max_cycle;Signal;HPM_P1;HPM_P2
2021/12/05 00:19:59;;;;;;;7.65;2.33;;;;;;;2.41;100.00;99744.94;5032282;28;20036;-70
2021/12/05 00:24:26;;;;;;;11.05;2.50;;;;;;;2.38;100.00;99737.28;5031941;28;20037;-71
2021/12/05 00:27:01;;;;;;;7.63;2.45;;;;;;;2.37;100.00;99734.78;5032287;28;20022;-72
2021/12/05 00:32:10;;;;;;;11.52;2.47;;;;;;;2.34;100.00;99725.34;5032049;28;20099;-71
2021/12/05 00:41:00;;;;;;;14.90;3.80;;;;;;;2.37;100.00;99737.41;5031780;28;20064;-71
2021/12/05 00:55:35;;;;;;;13.00;4.72;;;;;;;2.34;100.00;99717.47;5036109;28;20064;-71
2021/12/05 01:00:25;;;;;;;;;;;;;;;2.32;100.00;99721.16;5036225;28;20033;-71
2021/12/05 01:03:26;;;;;;;;;;;;;;;2.33;100.00;99712.31;5036301;28;19912;-70
2021/12/05 01:14:53;;;;;;;16.15;5.88;;;;;;;2.25;100.00;99716.34;5028865;28;20061;-71
2021/12/05 01:16:34;;;;;;;16.13;6.15;;;;;;;2.27;100.00;99709.22;5025772;28;20029;-71
2021/12/05 01:18:59;;;;;;;15.80;5.40;;;;;;;2.26;100.00;99706.72;5034555;28;20044;-70
2021/12/05 01:21:26;;;;;;;18.67;5.88;;;;;;;2.28;100.00;99707.41;5035303;28;20053;-71
2021/12/05 01:24:00;;;;;;;15.32;5.88;;;;;;;2.29;100.00;99704.69;5035719;28;20025;-71
2021/12/05 01:26:37;;;;;;;15.32;4.88;;;;;;;2.29;100.00;99702.06;5035074;28;20028;-71
2021/12/05 01:29:35;;;;;;;20.42;5.22;;;;;;;2.32;100.00;99705.41;5035260;28;20179;-71
2021/12/05 01:34:40;;;;;;;18.83;5.50;;;;;;;2.36;100.00;99714.72;5034941;28;20069;-71
2021/12/05 01:42:45;;;;;;;17.73;4.15;;;;;;;2.39;100.00;99723.22;5035412;28;20461;-70
2021/12/05 01:50:50;;;;;;;12.63;3.58;;;;;;;2.33;100.00;99713.19;5034924;28;20118;-70
2021/12/05 02:12:17;;;;;;;12.05;3.75;;;;;;;2.23;100.00;99705.13;5034769;28;20037;-70
2021/12/05 02:39:27;;;;;;;9.00;3.15;;;;;;;2.28;100.00;99707.41;5034078;28;20049;-71
2021/12/05 02:41:55;;;;;;;12.80;3.13;;;;;;;2.25;100.00;99713.72;5034180;28;20543;-71
2021/12/05 02:44:24;;;;;;;8.32;3.08;;;;;;;2.21;100.00;99706.19;5033426;28;20191;-70
2021/12/05 02:47:13;;;;;;;13.68;2.83;;;;;;;2.19;100.00;99708.09;5033067;28;20131;-70
2021/12/05 02:49:43;;;;;;;10.13;3.50;;;;;;;2.17;100.00;99710.00;5032363;28;20417;-70
2021/12/05 02:52:12;;;;;;;6.93;3.20;;;;;;;2.13;100.00;99713.81;5034015;28;20470;-72
2021/12/05 02:54:45;;;;;;;11.88;3.75;;;;;;;2.11;100.00;99706.03;5033319;28;20047;-71
2021/12/05 02:57:11;;;;;;;11.60;4.22;;;;;;;2.12;100.00;99715.59;5034090;28;20104;-70
2021/12/05 03:02:13;;;;;;;14.73;4.95;;;;;;;2.11;100.00;99706.03;5033813;28;20067;-70
2021/12/05 03:04:45;;;;;;;16.30;5.57;;;;;;;2.10;100.00;99707.81;5033305;28;20021;-70
2021/12/05 03:07:11;;;;;;;9.23;5.00;;;;;;;2.09;100.00;99714.03;5033281;28;20492;-70
2021/12/05 03:09:38;;;;;;;11.45;5.57;;;;;;;2.11;100.00;99708.66;5033008;28;20120;-70
2021/12/05 03:12:06;;;;;;;10.93;6.00;;;;;;;2.13;100.00;99709.38;5033445;28;20103;-70
2021/12/05 03:14:31;;;;;;;14.95;5.07;;;;;;;2.17;100.00;99710.00;5033094;28;20060;-70
2021/12/05 03:16:57;;;;;;;11.93;5.18;;;;;;;2.17;100.00;99707.38;5032888;28;20069;-70
2021/12/05 03:19:23;;;;;;;16.17;4.65;;;;;;;2.18;100.00;99709.03;5033194;28;20029;-75
2021/12/05 03:21:51;;;;;;;12.50;4.05;;;;;;;2.16;100.00;99706.53;5033333;28;20075;-70
2021/12/05 03:24:18;;;;;;;7.30;3.92;;;;;;;2.15;100.00;99704.88;5033396;28;20044;-70
2021/12/05 03:26:46;;;;;;;6.60;3.00;;;;;;;2.14;100.00;99705.81;5033276;28;20048;-70
2021/12/05 03:29:15;;;;;;;10.45;3.47;;;;;;;2.11;100.00;99712.13;5033106;28;20032;-70
2021/12/05 03:31:40;;;;;;;10.40;3.30;;;;;;;2.10;100.00;99705.19;5032806;28;20025;-70
2021/12/05 03:34:08;;;;;;;10.25;2.40;;;;;;;2.08;100.00;99701.84;5033141;28;20036;-70
2021/12/05 03:36:35;;;;;;;3.25;1.73;;;;;;;2.05;100.00;99709.94;5032524;28;20116;-71
2021/12/05 03:39:03;;;;;;;7.88;1.83;;;;;;;1.97;100.00;99706.22;5033139;28;20046;-71
2021/12/05 03:41:29;;;;;;;4.78;1.27;;;;;;;1.90;100.00;99706.66;5031369;28;20021;-70
2021/12/05 03:43:56;;;;;;;5.25;1.80;;;;;;;1.82;100.00;99714.25;5032876;28;20044;-71
2021/12/05 03:46:23;;;;;;;7.88;2.03;;;;;;;1.76;100.00;99709.44;5031732;28;20029;-72
2021/12/05 03:48:53;;;;;;;3.88;1.80;;;;;;;1.71;100.00;99722.88;5032319;28;20064;-71
2021/12/05 03:51:23;;;;;;;3.00;1.45;;;;;;;1.69;100.00;99722.16;5033178;28;20025;-71
2021/12/05 03:53:50;;;;;;;5.60;1.73;;;;;;;1.65;100.00;99723.31;5032543;28;20079;-71
2021/12/05 03:56:16;;;;;;;4.50;1.70;;;;;;;1.63;100.00;99729.59;5032887;28;20057;-71
2021/12/05 03:58:43;;;;;;;6.72;2.10;;;;;;;1.61;100.00;99742.00;5032376;28;20529;-71
2021/12/05 04:01:10;;;;;;;6.05;2.25;;;;;;;1.60;100.00;99741.16;5032560;28;20116;-71
2021/12/05 04:03:37;;;;;;;5.20;2.28;;;;;;;1.63;100.00;99746.19;5032153;28;20026;-72
2021/12/05 04:06:04;;;;;;;8.23;2.47;;;;;;;1.66;100.00;99745.16;5033106;28;20120;-72
2021/12/05 04:08:31;;;;;;;6.60;2.85;;;;;;;1.67;100.00;99746.81;5032125;28;20018;-71
2021/12/05 04:11:04;;;;;;;6.15;3.10;;;;;;;1.71;100.00;99748.28;5032426;28;20091;-70
2021/12/05 04:13:30;;;;;;;6.20;3.60;;;;;;;1.70;100.00;99747.44;5032184;28;20056;-71
2021/12/05 04:15:57;;;;;;;7.07;3.97;;;;;;;1.72;100.00;99747.34;5032567;28;20056;-70
2021/12/05 04:18:22;;;;;;;10.63;4.18;;;;;;;1.79;100.00;99752.97;5032381;28;20076;-71
2021/12/05 04:20:49;;;;;;;12.43;4.38;;;;;;;1.79;100.00;99755.59;5032162;28;20029;-69
2021/12/05 04:23:15;;;;;;;5.60;4.30;;;;;;;1.80;100.00;99755.47;5032510;28;20021;-69
2021/12/05 04:25:41;;;;;;;8.15;4.57;;;;;;;1.79;100.00;99761.66;5031328;28;20041;-70
2021/12/05 04:28:09;;;;;;;9.30;4.85;;;;;;;1.79;100.00;99759.03;5030534;28;20037;-70
2021/12/05 04:30:36;;;;;;;9.45;5.25;;;;;;;1.79;100.00;99756.41;5031228;28;20037;-70
2021/12/05 04:33:03;;;;;;;11.98;4.30;;;;;;;1.77;100.00;99767.00;5031840;28;20030;-70
2021/12/05 04:35:28;;;;;;;7.32;4.22;;;;;;;1.76;100.00;99765.38;5032314;28;20041;-70
2021/12/05 04:37:54;;;;;;;9.07;4.00;;;;;;;1.75;100.00;99761.06;5031891;28;20033;-69
2021/12/05 04:40:19;;;;;;;5.93;4.05;;;;;;;1.73;100.00;99767.34;5032357;28;20088;-70
2021/12/05 04:42:45;;;;;;;7.60;4.18;;;;;;;1.71;100.00;99767.47;5030537;28;20037;-70
2021/12/05 04:45:18;;;;;;;9.98;4.00;;;;;;;1.71;100.00;99771.88;5032066;28;20128;-70
2021/12/05 04:47:44;;;;;;;7.63;4.40;;;;;;;1.71;100.00;99766.63;5031732;28;20049;-70
2021/12/05 04:50:11;;;;;;;9.18;4.40;;;;;;;1.70;100.00;99770.19;5031936;28;20029;-70
2021/12/05 04:52:36;;;;;;;9.77;4.53;;;;;;;1.73;100.00;99764.72;5031781;28;20029;-71
2021/12/05 04:55:04;;;;;;;7.35;4.63;;;;;;;1.70;100.00;99768.44;5032059;28;20444;-70
2021/12/05 04:57:29;;;;;;;8.45;5.00;;;;;;;1.68;100.00;99770.28;5031783;28;20033;-71
2021/12/05 04:59:55;;;;;;;7.90;4.38;;;;;;;1.67;100.00;99767.78;5031356;28;20500;-70
2021/12/05 05:02:22;;;;;;;11.73;4.50;;;;;;;1.63;100.00;99761.94;5031469;28;20060;-70
2021/12/05 05:04:49;;;;;;;6.97;3.90;;;;;;;1.60;100.00;99767.41;5031338;28;20116;-70
2021/12/05 05:07:27;;;;;;;7.97;3.92;;;;;;;1.54;100.00;99773.91;5031804;28;20029;-70
2021/12/05 05:09:58;;;;;;;5.63;2.60;;;;;;;1.51;100.00;99778.53;5031190;28;20040;-71
2021/12/05 05:12:23;;;;;;;4.25;3.00;;;;;;;1.49;100.00;99783.84;5031940;28;20044;-70
2021/12/05 05:14:50;;;;;;;12.10;2.95;;;;;;;1.53;100.00;99787.13;5031255;28;20033;-71
2021/12/05 05:17:17;;;;;;;6.18;2.90;;;;;;;1.55;100.00;99787.84;5031858;28;20478;-70
2021/12/05 05:19:50;;;;;;;5.47;3.03;;;;;;;1.58;100.00;99793.72;5031629;28;20545;-70
2021/12/05 05:30:19;;;;;;;6.43;4.43;;;;;;;1.65;100.00;99804.59;5031184;28;20048;-70
2021/12/05 05:46:26;;;;;;;9.57;5.32;;;;;;;1.66;100.00;99815.94;5035132;28;20049;-71
2021/12/05 05:49:11;;;;;;;11.98;5.40;;;;;;;1.65;100.00;99820.34;5034696;28;20030;-71
2021/12/05 05:51:36;;;;;;;9.75;5.05;;;;;;;1.65;100.00;99825.59;5035025;28;20033;-71
2021/12/05 05:54:02;;;;;;;7.45;4.90;;;;;;;1.65;100.00;99827.38;5016805;28;20032;-71
2021/12/05 05:56:29;;;;;;;7.30;4.95;;;;;;;1.66;100.00;99831.69;5034844;28;20116;-71
2021/12/05 05:59:02;;;;;;;10.32;5.03;;;;;;;1.67;100.00;99830.72;5034389;28;20037;-71
2021/12/05 06:04:03;;;;;;;8.48;4.82;;;;;;;1.66;100.00;99831.69;5034363;28;20253;-71
2021/12/05 06:06:31;;;;;;;5.60;4.18;;;;;;;1.62;100.00;99836.28;5034666;28;20071;-71
2021/12/05 06:08:57;;;;;;;8.05;4.78;;;;;;;1.62;100.00;99833.66;5033967;28;20040;-70
2021/12/05 06:11:22;;;;;;;8.82;4.63;;;;;;;1.60;100.00;99832.94;5033118;28;20026;-70
2021/12/05 06:13:49;;;;;;;9.30;4.60;;;;;;;1.59;100.00;99839.13;5034117;28;20037;-70
2021/12/05 06:16:16;;;;;;;7.60;4.43;;;;;;;1.56;100.00;99842.78;5033298;28;20436;-70
2021/12/05 06:18:41;;;;;;;5.93;4.38;;;;;;;1.50;100.00;99842.38;5034442;28;20030;-70
2021/12/05 06:21:08;;;;;;;5.22;3.80;;;;;;;1.47;100.00;99850.47;5034107;28;20087;-71
2021/12/05 06:23:34;;;;;;;6.35;4.30;;;;;;;1.44;100.00;99856.75;5034326;28;20132;-70
2021/12/05 06:26:01;;;;;;;8.00;4.47;;;;;;;1.45;100.00;99866.31;5033795;28;20115;-70
2021/12/05 06:28:35;;;;;;;9.07;5.07;;;;;;;1.46;100.00;99873.19;5034339;28;20040;-70
2021/12/05 06:36:57;;;;;;;9.90;4.55;;;;;;;1.49;100.00;99875.59;5033985;28;20102;-70
2021/12/05 06:47:43;;;;;;;8.50;4.15;;;;;;;1.19;100.00;99884.59;5034172;28;20091;-70
2021/12/05 06:50:08;;;;;;;9.27;4.32;;;;;;;1.11;100.00;99899.19;5032939;28;20030;-70
2021/12/05 06:52:34;;;;;;;9.60;5.05;;;;;;;1.04;100.00;99894.31;5033672;28;20040;-70
2021/12/05 06:54:59;;;;;;;9.68;4.85;;;;;;;0.99;100.00;99900.81;5033373;28;20429;-71
2021/12/05 06:57:25;;;;;;;9.30;4.35;;;;;;;0.98;100.00;99899.97;5033607;28;20473;-70
2021/12/05 06:59:51;;;;;;;10.63;5.07;;;;;;;1.01;100.00;99902.38;5033746;28;20037;-71
2021/12/05 07:02:18;;;;;;;9.00;4.82;;;;;;;1.07;100.00;99910.78;5033843;28;20036;-70
2021/12/05 07:07:25;;;;;;;18.60;7.57;;;;;;;1.22;100.00;99907.16;5033168;28;20044;-70
2021/12/05 07:09:52;;;;;;;18.90;9.15;;;;;;;1.28;100.00;99914.59;5033001;28;20026;-74
2021/12/05 07:14:59;;;;;;;21.80;8.77;;;;;;;1.35;100.00;99931.59;5033496;28;20041;-70
2021/12/05 07:22:51;;;;;;;16.92;8.45;;;;;;;1.50;100.00;99949.88;5033553;28;20140;-71
2021/12/05 07:25:37;;;;;;;;;;;;;;;1.52;100.00;99953.22;5033971;28;20044;-71
2021/12/05 07:41:53;;;;;;;20.15;10.23;;;;;;;1.57;100.00;99967.72;5033124;28;20505;-71
2021/12/05 07:44:18;;;;;;;21.10;10.25;;;;;;;1.51;100.00;99975.16;5032603;28;20033;-71
2021/12/05 07:46:46;;;;;;;21.38;10.00;;;;;;;1.44;100.00;99973.88;5032904;28;20078;-71
2021/12/05 07:49:13;;;;;;;19.58;10.48;;;;;;;1.40;100.00;99983.72;5032258;28;20041;-71
2021/12/05 07:51:42;;;;;;;20.83;11.63;;;;;;;1.37;100.00;99979.53;5032593;28;20061;-71
2021/12/05 07:54:31;;;;;;;23.60;11.35;;;;;;;1.38;100.00;99983.81;5032340;28;20034;-71
2021/12/05 08:16:00;;;;;;;24.35;12.60;;;;;;;1.92;100.00;99989.88;5032636;28;20107;-71
2021/12/05 08:18:27;;;;;;;29.60;12.52;;;;;;;1.94;100.00;99996.72;5032210;28;20045;-71
2021/12/05 08:20:53;;;;;;;22.30;12.10;;;;;;;1.97;100.00;100006.19;5032321;28;20081;-72
2021/12/05 08:23:18;;;;;;;30.98;12.80;;;;;;;1.96;100.00;100014.97;5032283;28;20030;-71
2021/12/05 08:25:52;;;;;;;29.40;12.65;;;;;;;1.97;100.00;100003.56;5031340;28;20034;-72
2021/12/05 08:30:58;;;;;;;26.92;11.80;;;;;;;2.03;100.00;100015.38;5031889;28;21593;-70
2021/12/05 08:33:40;;;;;;;23.55;12.00;;;;;;;2.08;100.00;100021.19;5029445;28;20045;-72
2021/12/05 08:43:50;;;;;;;24.75;11.55;;;;;;;2.25;100.00;100023.47;5028930;28;20053;-71
2021/12/05 09:27:29;;;;;;;20.08;10.32;;;;;;;2.64;100.00;100099.59;5032055;28;20038;-74
2021/12/05 09:51:10;;;;;;;29.15;12.07;;;;;;;2.94;100.00;100117.66;5031219;28;20065;-71
2021/12/05 10:02:45;;;;;;;14.40;8.82;;;;;;;3.48;100.00;100132.25;5027997;28;20048;-74
2021/12/05 10:19:12;;;;;;;19.77;9.65;;;;;;;3.22;100.00;100152.50;5030123;28;20040;-75
2021/12/05 10:27:22;;;;;;;17.75;10.45;;;;;;;3.33;100.00;100167.53;5031286;28;20111;-73
2021/12/05 10:38:30;;;;;;;15.70;9.18;;;;;;;3.61;100.00;100176.91;5030779;28;20041;-78
2021/12/05 10:41:21;;;;;;;14.57;8.80;;;;;;;3.74;100.00;100184.75;5031389;28;20062;-72
2021/12/05 10:43:51;;;;;;;14.93;8.70;;;;;;;3.84;100.00;100183.16;5031219;28;20179;-72
2021/12/05 10:46:19;;;;;;;14.07;8.32;;;;;;;3.96;100.00;100181.41;5031395;28;20589;-73
2021/12/05 10:48:52;;;;;;;11.95;7.30;;;;;;;4.04;100.00;100172.94;5031097;28;20091;-73
2021/12/05 10:51:24;;;;;;;10.82;6.40;;;;;;;4.16;100.00;100187.81;5031213;28;20037;-72
2021/12/05 10:53:56;;;;;;;9.00;5.40;;;;;;;4.20;100.00;100193.72;5031148;28;20139;-73
2021/12/05 10:56:33;;;;;;;;;;;;;;;4.35;100.00;100186.47;5030897;28;20064;-72
2021/12/05 10:59:17;;;;;;;6.07;4.72;;;;;;;4.53;100.00;100192.16;5030918;28;19920;-72
2021/12/05 11:01:53;;;;;;;10.93;5.55;;;;;;;4.65;99.78;100193.84;5030010;28;20029;-73
2021/12/05 11:04:30;;;;;;;8.55;5.45;;;;;;;4.81;99.54;100196.16;5030436;28;20037;-72
2021/12/05 11:06:59;;;;;;;7.60;5.43;;;;;;;4.92;98.88;100192.69;5030714;28;20045;-71
2021/12/05 11:09:38;;;;;;;9.70;5.20;;;;;;;5.04;99.13;100193.56;5030079;28;20402;-71
2021/12/05 11:12:08;;;;;;;10.40;4.63;;;;;;;5.10;98.33;100200.97;5029087;28;20489;-74
2021/12/05 11:14:56;;;;;;;7.32;4.93;;;;;;;5.21;96.37;100205.41;5029788;28;20033;-73
2021/12/05 11:17:26;;;;;;;7.80;4.20;;;;;;;5.08;94.91;100205.53;5030124;28;20036;-74
2021/12/05 11:19:58;;;;;;;8.93;5.07;;;;;;;5.06;96.32;100207.44;5030516;28;20423;-73
2021/12/05 11:22:25;;;;;;;;;;;;;;;4.90;95.39;100218.34;5030143;28;20417;-79
2021/12/05 11:24:53;;;;;;;9.68;4.82;;;;;;;4.98;96.61;100209.84;5028905;28;20347;-70
2021/12/05 11:27:40;;;;;;;7.15;4.38;;;;;;;5.16;96.89;100212.84;5030035;28;20121;-71
2021/12/05 11:30:13;;;;;;;7.10;4.63;;;;;;;5.18;95.28;100219.69;5030513;28;20119;-74
2021/12/05 11:32:51;;;;;;;10.38;5.28;;;;;;;5.18;95.09;100222.34;5029653;28;20120;-71
2021/12/05 11:35:31;;;;;;;11.75;5.80;;;;;;;5.24;95.42;100221.00;5030418;28;20040;-72
2021/12/05 11:38:03;;;;;;;9.45;5.30;;;;;;;5.43;94.76;100220.41;5028484;28;20025;-71
2021/12/05 11:40:30;;;;;;;;;;;;;;;5.46;93.55;100218.38;5029788;28;20120;-72
2021/12/05 11:43:02;;;;;;;10.20;5.38;;;;;;;5.53;93.21;100224.00;5029912;28;19913;-72
2021/12/05 11:45:30;;;;;;;8.18;4.60;;;;;;;5.51;93.31;100225.06;5029036;28;20500;-72
2021/12/05 11:47:56;;;;;;;7.68;4.70;;;;;;;5.45;93.64;100229.88;5026087;28;20085;-72
2021/12/05 11:50:34;;;;;;;5.63;4.57;;;;;;;5.57;94.79;100236.00;5027107;28;20072;-71
2021/12/05 11:53:00;;;;;;;6.32;4.05;;;;;;;5.68;93.25;100239.59;5030655;28;20029;-70
2021/12/05 11:55:28;;;;;;;8.23;3.83;;;;;;;5.68;91.49;100243.06;5032686;28;20485;-71
2021/12/05 11:57:54;;;;;;;7.88;3.83;;;;;;;5.55;92.09;100244.97;5032637;28;20108;-71
2021/12/05 12:00:20;;;;;;;7.88;4.90;;;;;;;5.49;93.23;100243.66;5032620;28;20592;-72
2021/12/05 12:02:47;;;;;;;6.95;4.60;;;;;;;5.45;94.87;100252.78;5031802;28;20116;-73
2021/12/05 12:05:17;;;;;;;7.43;4.88;;;;;;;5.39;94.62;100255.88;5032668;28;20038;-71
2021/12/05 12:07:52;;;;;;;8.85;4.18;;;;;;;5.38;95.48;100256.88;5032121;28;20033;-71
2021/12/05 12:10:29;;;;;;;6.82;4.90;;;;;;;5.38;94.40;100252.41;5032338;28;20092;-71
2021/12/05 12:13:02;;;;;;;7.20;4.70;;;;;;;5.34;93.71;100265.97;5032547;28;20036;-71
2021/12/05 12:15:29;;;;;;;6.35;5.15;;;;;;;5.25;95.21;100263.06;5032449;28;20033;-71
2021/12/05 12:18:07;;;;;;;6.00;4.47;;;;;;;5.26;94.94;100262.13;5032785;28;20090;-71
2021/12/05 12:20:34;;;;;;;8.20;4.88;;;;;;;5.19;94.33;100270.63;5031958;28;20036;-72
2021/12/05 12:23:00;;;;;;;7.18;5.22;;;;;;;5.16;95.46;100274.34;5032218;28;20033;-71
2021/12/05 12:25:32;;;;;;;7.18;5.18;;;;;;;5.11;96.71;100276.50;5032289;28;20041;-72
2021/12/05 12:27:57;;;;;;;7.50;5.25;;;;;;;5.02;96.07;100275.41;5032513;28;20084;-71
2021/12/05 12:30:29;;;;;;;9.10;5.43;;;;;;;5.02;97.13;100277.22;5032200;28;20037;-71
2021/12/05 12:33:08;;;;;;;9.40;5.18;;;;;;;5.00;96.85;100281.75;5032044;28;20493;-71
2021/12/05 12:35:34;;;;;;;7.18;4.75;;;;;;;5.01;98.01;100284.28;5030874;28;20021;-71
2021/12/05 12:38:08;;;;;;;11.27;5.35;;;;;;;5.01;98.77;100299.25;5032098;28;20044;-71
2021/12/05 12:41:01;;;;;;;10.63;5.30;;;;;;;5.00;99.60;100290.53;5031739;28;20054;-71
2021/12/05 12:43:52;;;;;;;11.15;5.03;;;;;;;5.03;99.31;100287.66;5032353;28;20037;-70
2021/12/05 12:46:23;;;;;;;6.35;4.68;;;;;;;5.11;98.77;100297.59;5032105;28;20040;-71
2021/12/05 12:48:57;;;;;;;6.13;4.47;;;;;;;5.14;97.18;100293.91;5034339;28;20036;-71
2021/12/05 12:51:38;;;;;;;7.22;5.03;;;;;;;5.12;98.15;100305.41;5036525;28;20033;-71
2021/12/05 12:54:09;;;;;;;9.27;5.38;;;;;;;5.14;98.87;100305.28;5036406;28;20022;-71
2021/12/05 12:56:35;;;;;;;9.30;6.10;;;;;;;5.17;99.64;100305.03;5035685;28;20026;-72
2021/12/05 12:59:06;;;;;;;8.35;5.32;;;;;;;5.16;99.35;100313.06;5035904;28;20025;-71
2021/12/05 13:05:34;;;;;;;9.15;5.25;;;;;;;5.06;98.74;100316.41;5036226;28;20474;-71
2021/12/05 13:10:40;;;;;;;10.35;4.78;;;;;;;4.92;98.54;100327.16;5035986;28;20087;-71
2021/12/05 13:13:25;;;;;;;7.25;4.60;;;;;;;4.89;99.30;100327.38;5035675;28;20030;-71
2021/12/05 13:15:53;;;;;;;14.15;5.10;;;;;;;4.84;99.71;100333.00;5035194;28;20104;-71
2021/12/05 13:18:21;;;;;;;5.38;4.20;;;;;;;4.79;99.46;100335.13;5035778;28;20397;-71
2021/12/05 13:20:53;;;;;;;7.60;5.15;;;;;;;4.75;99.92;100339.78;5035470;28;20037;-71
2021/12/05 13:23:27;;;;;;;11.88;5.03;;;;;;;4.72;100.00;100342.66;5035821;28;20453;-71
2021/12/05 13:26:06;;;;;;;7.63;5.18;;;;;;;4.67;100.00;100342.19;5035307;28;20033;-71
2021/12/05 13:29:10;;;;;;;7.32;5.35;;;;;;;4.59;100.00;100347.16;5035773;28;20030;-71
2021/12/05 13:31:39;;;;;;;8.90;5.20;;;;;;;4.54;100.00;100352.75;5035589;28;20028;-71
2021/12/05 13:34:34;;;;;;;14.50;5.40;;;;;;;4.50;100.00;100350.47;5035456;28;20434;-71
2021/12/05 13:37:05;;;;;;;10.65;6.57;;;;;;;4.48;100.00;100355.84;5035060;28;20091;-71
2021/12/05 13:39:42;;;;;;;9.90;6.95;;;;;;;4.47;100.00;100351.53;5035147;28;20079;-71
2021/12/05 13:42:16;;;;;;;8.15;6.85;;;;;;;4.47;100.00;100356.78;5035224;28;20029;-71
2021/12/05 13:44:59;;;;;;;11.43;6.55;;;;;;;4.47;100.00;100371.78;5034900;28;20033;-72
2021/12/05 13:47:33;;;;;;;10.38;7.68;;;;;;;4.47;100.00;100369.13;5035324;28;20037;-71
2021/12/05 13:50:16;;;;;;;9.77;7.13;;;;;;;4.46;100.00;100377.97;5034647;28;20535;-71
2021/12/05 13:52:45;;;;;;;8.65;7.25;;;;;;;4.42;100.00;100372.09;5034728;28;20029;-72
2021/12/05 13:55:41;;;;;;;8.02;7.18;;;;;;;4.41;100.00;100381.78;5035065;28;20120;-72
2021/12/05 13:58:23;;;;;;;12.82;7.20;;;;;;;4.45;100.00;100392.97;5035193;28;20021;-72
2021/12/05 14:00:54;;;;;;;10.40;7.85;;;;;;;4.46;100.00;100394.63;5033900;28;20040;-72
2021/12/05 14:03:51;;;;;;;11.05;8.20;;;;;;;4.47;100.00;100398.13;5034687;28;20458;-72
2021/12/05 14:06:31;;;;;;;12.52;8.80;;;;;;;4.46;100.00;100399.88;5034956;28;20033;-70
2021/12/05 14:09:08;;;;;;;11.05;8.98;;;;;;;4.43;100.00;100407.19;5034356;28;20030;-70
2021/12/05 14:11:36;;;;;;;12.27;9.02;;;;;;;4.37;100.00;100409.31;5034553;28;20033;-70
2021/12/05 14:14:06;;;;;;;12.82;9.93;;;;;;;4.34;100.00;100420.03;5034088;28;20030;-71
2021/12/05 14:16:38;;;;;;;12.60;10.38;;;;;;;4.34;100.00;100425.31;5034725;28;20056;-70
2021/12/05 14:19:06;;;;;;;18.88;12.20;;;;;;;4.31;100.00;100429.97;5033105;28;20643;-71
2021/12/05 14:21:32;;;;;;;20.83;11.80;;;;;;;4.29;100.00;100434.50;5034577;28;20034;-71
2021/12/05 14:24:01;;;;;;;20.08;12.85;;;;;;;4.27;100.00;100441.66;5034104;28;20116;-71
2021/12/05 14:26:30;;;;;;;21.75;12.70;;;;;;;4.21;100.00;100448.19;5034549;28;20033;-71
2021/12/05 14:29:20;;;;;;;21.67;13.10;;;;;;;4.12;100.00;100452.34;5033713;28;20470;-69
2021/12/05 14:31:55;;;;;;;22.55;13.90;;;;;;;4.10;100.00;100456.84;5034139;28;20112;-75
2021/12/05 14:34:20;;;;;;;22.70;13.73;;;;;;;4.08;100.00;100471.09;5034478;28;20061;-71
2021/12/05 14:36:50;;;;;;;25.05;13.82;;;;;;;4.04;100.00;100473.91;5033945;28;20057;-75
2021/12/05 14:39:35;;;;;;;28.63;14.02;;;;;;;4.02;100.00;100465.28;5034016;28;20123;-71
2021/12/05 14:42:10;;;;;;;25.58;13.93;;;;;;;3.99;100.00;100472.56;5033877;28;20041;-71
2021/12/05 14:44:37;;;;;;;25.10;14.30;;;;;;;3.98;100.00;100484.03;5032986;28;20018;-71
2021/12/05 14:47:08;;;;;;;29.60;16.15;;;;;;;3.93;100.00;100481.72;5033382;28;20033;-70
2021/12/05 14:49:40;;;;;;;28.58;15.88;;;;;;;3.91;100.00;100495.94;5033833;28;20034;-70
2021/12/05 14:52:09;;;;;;;31.50;16.52;;;;;;;3.87;100.00;100497.94;5033648;28;20498;-71
2021/12/05 14:54:37;;;;;;;26.02;16.25;;;;;;;3.84;100.00;100512.16;5033811;28;20106;-71
2021/12/05 14:57:14;;;;;;;34.47;16.90;;;;;;;3.84;100.00;100519.22;5033401;28;20112;-71
2021/12/05 14:59:41;;;;;;;44.72;18.35;;;;;;;3.82;100.00;100521.94;5033684;28;20502;-71
2021/12/05 15:02:07;;;;;;;42.33;17.95;;;;;;;3.80;100.00;100534.34;5033178;28;20114;-72
2021/12/05 15:04:37;;;;;;;35.58;17.60;;;;;;;3.79;100.00;100531.81;5033607;28;20577;-70
2021/12/05 15:07:04;;;;;;;35.45;18.50;;;;;;;3.75;100.00;100544.34;5033343;28;20399;-71
2021/12/05 15:09:39;;;;;;;39.83;18.77;;;;;;;3.72;100.00;100549.81;5033638;28;20021;-70
2021/12/05 15:12:16;;;;;;;43.05;19.77;;;;;;;3.71;100.00;100558.66;5032081;28;20090;-71
2021/12/05 15:14:43;;;;;;;49.65;21.02;;;;;;;3.68;100.00;100554.41;5033463;28;20112;-71
2021/12/05 15:17:18;;;;;;;51.08;21.27;;;;;;;3.67;100.00;100560.66;5032878;28;20079;-71
2021/12/05 15:19:49;;;;;;;48.22;20.27;;;;;;;3.65;100.00;100564.31;5033309;28;20078;-71
2021/12/05 15:22:15;;;;;;;48.28;20.45;;;;;;;3.63;100.00;100574.94;5033099;28;20029;-71
2021/12/05 15:24:48;;;;;;;48.75;21.73;;;;;;;3.61;100.00;100581.25;5031884;28;20025;-71
2021/12/05 15:27:16;;;;;;;44.88;20.27;;;;;;;3.58;100.00;100584.91;5032981;28;20044;-71
2021/12/05 15:29:52;;;;;;;45.30;21.83;;;;;;;3.56;100.00;100589.44;5033357;28;20040;-71
2021/12/05 15:32:20;;;;;;;47.35;21.30;;;;;;;3.53;100.00;100592.28;5032679;28;20393;-71
2021/12/05 15:34:50;;;;;;;48.30;23.60;;;;;;;3.51;100.00;100595.00;5033219;28;20037;-71
2021/12/05 15:37:15;;;;;;;56.83;25.98;;;;;;;3.50;100.00;100605.63;5032630;28;20040;-70
2021/12/05 15:39:44;;;;;;;65.20;27.90;;;;;;;3.44;100.00;100606.84;5032713;28;20037;-70
2021/12/05 15:42:17;;;;;;;62.97;28.35;;;;;;;3.41;100.00;100614.94;5032542;28;20060;-71
2021/12/05 15:44:43;;;;;;;69.53;29.42;;;;;;;3.39;100.00;100619.47;5033247;28;20029;-71
2021/12/05 15:47:13;;;;;;;70.00;28.40;;;;;;;3.35;100.00;100623.25;5032701;28;20524;-70
2021/12/05 15:50:02;;;;;;;72.35;29.27;;;;;;;3.32;100.00;100636.59;5032854;28;20033;-71
2021/12/05 15:52:54;;;;;;;77.20;28.35;;;;;;;3.29;100.00;100634.97;5032677;28;20033;-70
2021/12/05 15:55:51;;;;;;;67.93;27.40;;;;;;;3.25;100.00;100641.38;5032376;28;20052;-71
2021/12/05 15:58:30;;;;;;;69.32;26.45;;;;;;;3.22;100.00;100644.19;5031843;28;20045;-69
2021/12/05 16:01:00;;;;;;;66.43;25.38;;;;;;;3.20;100.00;100647.88;5032500;28;20091;-69
2021/12/05 16:03:37;;;;;;;71.03;28.25;;;;;;;3.16;100.00;100647.22;5032924;28;20377;-69
2021/12/05 16:06:04;;;;;;;64.28;25.88;;;;;;;3.14;100.00;100655.19;5031950;28;20454;-70
2021/12/05 16:08:32;;;;;;;73.82;28.58;;;;;;;3.11;100.00;100663.28;5032585;28;20068;-70
2021/12/05 16:10:59;;;;;;;67.63;26.08;;;;;;;3.07;100.00;100664.41;5032252;28;20025;-74
2021/12/05 16:13:37;;;;;;;76.55;28.60;;;;;;;3.06;100.00;100675.88;5032337;28;20030;-70
2021/12/05 16:16:17;;;;;;;72.05;27.10;;;;;;;3.05;100.00;100676.81;5032255;28;20037;-72
2021/12/05 16:18:46;;;;;;;69.60;26.17;;;;;;;3.04;100.00;100684.78;5032496;28;20564;-69
2021/12/05 16:21:19;;;;;;;68.90;26.10;;;;;;;3.01;100.00;100685.81;5031993;28;20116;-70
2021/12/05 16:23:45;;;;;;;72.15;25.83;;;;;;;3.00;100.00;100692.00;5032002;28;20112;-70
2021/12/05 16:26:19;;;;;;;61.35;25.88;;;;;;;2.99;100.00;100695.59;5032019;28;20580;-70
2021/12/05 16:28:54;;;;;;;61.15;24.90;;;;;;;2.98;100.00;100696.50;5032427;28;20056;-70
2021/12/05 16:31:30;;;;;;;66.28;25.90;;;;;;;2.95;100.00;100694.06;5030521;28;20764;-70
2021/12/05 16:33:59;;;;;;;58.83;26.80;;;;;;;2.91;100.00;100703.09;5032314;28;20482;-69
2021/12/05 16:36:37;;;;;;;68.93;26.52;;;;;;;2.87;100.00;100712.94;5032081;28;20029;-71
2021/12/05 16:39:05;;;;;;;61.35;24.88;;;;;;;2.83;100.00;100717.53;5032061;28;20075;-70
2021/12/05 16:41:31;;;;;;;65.22;27.52;;;;;;;2.80;100.00;100722.97;5032340;28;20048;-70
2021/12/05 16:44:05;;;;;;;71.53;28.30;;;;;;;2.78;100.00;100724.84;5032019;28;20036;-72
2021/12/05 16:46:40;;;;;;;65.90;26.60;;;;;;;2.76;100.00;100725.88;5032229;28;20030;-70
2021/12/05 16:49:09;;;;;;;68.70;28.25;;;;;;;2.75;100.00;100738.19;5030987;28;20030;-71
2021/12/05 16:51:50;;;;;;;74.30;28.67;;;;;;;2.74;100.00;100746.97;5032314;28;20032;-71
2021/12/05 16:54:30;;;;;;;71.80;29.40;;;;;;;2.74;100.00;100754.03;5031622;28;20034;-71